sensor_id;sensor_type;location;lat;lon;timestamp;pressure;altitude;pressure_sealevel;temperature;humidity
43745;BME280;29359;53.048;8.732;2023-04-25T00:01:23;100739.38;;;6.82;100.00
43745;BME280;29359;53.048;8.732;2023-04-25T00:03:25;100750.72;;;6.85;100.00
43745;BME280;29359;53.048;8.732;2023-04-25T00:05:27;100744.56;;;6.86;100.00
43745;BME280;29359;53.048;8.732;2023-04-25T00:07:28;100749.84;;;6.85;100.00
43745;BME280;29359;53.048;8.732;2023-04-25T00:09:30;100750.72;;;6.85;99.50
43745;BME280;29359;53.048;8.732;2023-04-25T00:11:31;100748.06;;;6.87;99.33
43745;BME280;29359;53.048;8.732;2023-04-25T00:13:33;100755.03;;;6.88;99.61
43745;BME280;29359;53.048;8.732;2023-04-25T00:15:34;100750.66;;;6.88;98.60
43745;BME280;29359;53.048;8.732;2023-04-25T00:17:37;100751.56;;;6.86;98.67
43745;BME280;29359;53.048;8.732;2023-04-25T00:19:39;100759.47;;;6.84;98.82
43745;BME280;29359;53.048;8.732;2023-04-25T00:21:41;100759.47;;;6.84;98.40
43745;BME280;29359;53.048;8.732;2023-04-25T00:23:43;100756.00;;;6.82;98.76
43745;BME280;29359;53.048;8.732;2023-04-25T00:25:45;100763.84;;;6.84;98.74
43745;BME280;29359;53.048;8.732;2023-04-25T00:27:47;100760.34;;;6.83;98.56
43745;BME280;29359;53.048;8.732;2023-04-25T00:29:48;100762.13;;;6.83;98.42
43745;BME280;29359;53.048;8.732;2023-04-25T00:31:50;100758.66;;;6.81;97.92
43745;BME280;29359;53.048;8.732;2023-04-25T00:33:52;100761.28;;;6.79;97.32
43745;BME280;29359;53.048;8.732;2023-04-25T00:35:54;100757.81;;;6.77;97.24
43745;BME280;29359;53.048;8.732;2023-04-25T00:37:56;100763.13;;;6.74;97.18
43745;BME280;29359;53.048;8.732;2023-04-25T00:39:58;100769.25;;;6.73;96.93
43745;BME280;29359;53.048;8.732;2023-04-25T00:42:00;100771.91;;;6.72;97.03
43745;BME280;29359;53.048;8.732;2023-04-25T00:44:03;100778.03;;;6.71;96.52
43745;BME280;29359;53.048;8.732;2023-04-25T00:46:05;100784.19;;;6.68;96.56
43745;BME280;29359;53.048;8.732;2023-04-25T00:48:07;100777.25;;;6.64;96.68
43745;BME280;29359;53.048;8.732;2023-04-25T00:50:10;100787.75;;;6.63;97.02
43745;BME280;29359;53.048;8.732;2023-04-25T00:52:12;100775.56;;;6.60;96.85
43745;BME280;29359;53.048;8.732;2023-04-25T00:54:14;100783.44;;;6.60;97.12
43745;BME280;29359;53.048;8.732;2023-04-25T00:56:16;100779.03;;;6.60;96.83
43745;BME280;29359;53.048;8.732;2023-04-25T00:58:18;100780.78;;;6.61;96.46
43745;BME280;29359;53.048;8.732;2023-04-25T01:00:20;100771.22;;;6.57;96.33
43745;BME280;29359;53.048;8.732;2023-04-25T01:02:22;100770.38;;;6.55;96.21
43745;BME280;29359;53.048;8.732;2023-04-25T01:04:23;100773.03;;;6.52;95.98
43745;BME280;29359;53.048;8.732;2023-04-25T01:06:25;100777.41;;;6.52;96.04
43745;BME280;29359;53.048;8.732;2023-04-25T01:08:26;100780.91;;;6.51;95.90
43745;BME280;29359;53.048;8.732;2023-04-25T01:10:28;100786.19;;;6.48;95.66
43745;BME280;29359;53.048;8.732;2023-04-25T01:12:30;100784.44;;;6.47;95.14
43745;BME280;29359;53.048;8.732;2023-04-25T01:14:32;100786.22;;;6.45;94.72
43745;BME280;29359;53.048;8.732;2023-04-25T01:16:34;100789.69;;;6.45;93.67
43745;BME280;29359;53.048;8.732;2023-04-25T01:18:38;100785.38;;;6.41;92.97
43745;BME280;29359;53.048;8.732;2023-04-25T01:20:41;100781.03;;;6.39;92.33
43745;BME280;29359;53.048;8.732;2023-04-25T01:22:43;100779.31;;;6.38;91.54
43745;BME280;29359;53.048;8.732;2023-04-25T01:24:45;100794.19;;;6.36;91.56
43745;BME280;29359;53.048;8.732;2023-04-25T01:26:46;100789.88;;;6.32;91.58
43745;BME280;29359;53.048;8.732;2023-04-25T01:28:51;100794.31;;;6.26;91.63
43745;BME280;29359;53.048;8.732;2023-04-25T01:30:54;100797.78;;;6.27;91.60
43745;BME280;29359;53.048;8.732;2023-04-25T01:32:56;100808.28;;;6.25;92.05
43745;BME280;29359;53.048;8.732;2023-04-25T01:34:58;100808.31;;;6.24;92.52
43745;BME280;29359;53.048;8.732;2023-04-25T01:37:00;100810.09;;;6.22;92.68
43745;BME280;29359;53.048;8.732;2023-04-25T01:39:03;100812.72;;;6.20;92.24
43745;BME280;29359;53.048;8.732;2023-04-25T01:41:04;100814.47;;;6.20;93.20
43745;BME280;29359;53.048;8.732;2023-04-25T01:43:09;100817.09;;;6.20;92.75
43745;BME280;29359;53.048;8.732;2023-04-25T01:45:13;100820.59;;;6.19;92.80
43745;BME280;29359;53.048;8.732;2023-04-25T01:47:14;100825.88;;;6.17;92.65
43745;BME280;29359;53.048;8.732;2023-04-25T01:49:16;100825.88;;;6.16;93.03
43745;BME280;29359;53.048;8.732;2023-04-25T01:51:18;100830.25;;;6.17;93.26
43745;BME280;29359;53.048;8.732;2023-04-25T01:53:20;100837.25;;;6.15;93.20
43745;BME280;29359;53.048;8.732;2023-04-25T01:55:21;100825.03;;;6.14;93.20
43745;BME280;29359;53.048;8.732;2023-04-25T01:57:23;100830.28;;;6.14;92.85
43745;BME280;29359;53.048;8.732;2023-04-25T01:59:24;100833.78;;;6.13;93.00
43745;BME280;29359;53.048;8.732;2023-04-25T02:01:26;100832.03;;;6.12;93.11
43745;BME280;29359;53.048;8.732;2023-04-25T02:03:30;100836.41;;;6.11;92.33
43745;BME280;29359;53.048;8.732;2023-04-25T02:05:37;100844.28;;;6.11;92.27
43745;BME280;29359;53.048;8.732;2023-04-25T02:07:38;100839.91;;;6.12;91.54
43745;BME280;29359;53.048;8.732;2023-04-25T02:09:40;100846.91;;;6.10;91.25
43745;BME280;29359;53.048;8.732;2023-04-25T02:11:41;100842.56;;;6.07;91.20
43745;BME280;29359;53.048;8.732;2023-04-25T02:13:43;100844.28;;;6.07;91.38
43745;BME280;29359;53.048;8.732;2023-04-25T02:15:44;100847.78;;;6.06;91.77
43745;BME280;29359;53.048;8.732;2023-04-25T02:17:46;100850.41;;;6.06;91.16
43745;BME280;29359;53.048;8.732;2023-04-25T02:19:48;100845.19;;;6.03;91.36
43745;BME280;29359;53.048;8.732;2023-04-25T02:21:49;100842.59;;;6.01;91.10
43745;BME280;29359;53.048;8.732;2023-04-25T02:23:51;100858.38;;;5.96;91.31
43745;BME280;29359;53.048;8.732;2023-04-25T02:25:53;100850.50;;;5.96;90.81
43745;BME280;29359;53.048;8.732;2023-04-25T02:27:56;100847.94;;;5.92;91.00
43745;BME280;29359;53.048;8.732;2023-04-25T02:29:58;100845.28;;;5.93;89.70
43745;BME280;29359;53.048;8.732;2023-04-25T02:31:59;100846.16;;;5.94;90.02
43745;BME280;29359;53.048;8.732;2023-04-25T02:34:01;100840.06;;;5.89;89.81
43745;BME280;29359;53.048;8.732;2023-04-25T02:36:02;100844.44;;;5.90;89.65
43745;BME280;29359;53.048;8.732;2023-04-25T02:38:04;100839.22;;;5.87;89.66
43745;BME280;29359;53.048;8.732;2023-04-25T02:40:06;100836.56;;;5.88;89.38
43745;BME280;29359;53.048;8.732;2023-04-25T02:42:08;100833.09;;;5.88;89.15
43745;BME280;29359;53.048;8.732;2023-04-25T02:44:09;100841.84;;;5.85;88.97
43745;BME280;29359;53.048;8.732;2023-04-25T02:46:11;100841.88;;;5.82;89.45
43745;BME280;29359;53.048;8.732;2023-04-25T02:48:12;100837.53;;;5.78;89.82
43745;BME280;29359;53.048;8.732;2023-04-25T02:50:14;100834.06;;;5.78;89.57
43745;BME280;29359;53.048;8.732;2023-04-25T02:52:15;100840.16;;;5.78;89.06
43745;BME280;29359;53.048;8.732;2023-04-25T02:54:17;100837.56;;;5.77;89.38
43745;BME280;29359;53.048;8.732;2023-04-25T02:56:18;100830.59;;;5.74;88.96
43745;BME280;29359;53.048;8.732;2023-04-25T02:58:20;100843.69;;;5.76;89.37
43745;BME280;29359;53.048;8.732;2023-04-25T03:00:22;100833.22;;;5.74;89.11
43745;BME280;29359;53.048;8.732;2023-04-25T03:02:23;100833.22;;;5.74;88.71
43745;BME280;29359;53.048;8.732;2023-04-25T03:04:25;100832.34;;;5.74;88.85
43745;BME280;29359;53.048;8.732;2023-04-25T03:06:27;100839.34;;;5.73;89.40
43745;BME280;29359;53.048;8.732;2023-04-25T03:08:28;100839.38;;;5.70;89.64
43745;BME280;29359;53.048;8.732;2023-04-25T03:10:33;100840.22;;;5.72;89.41
43745;BME280;29359;53.048;8.732;2023-04-25T03:12:35;100840.22;;;5.72;89.23
43745;BME280;29359;53.048;8.732;2023-04-25T03:14:37;100833.25;;;5.71;89.04
43745;BME280;29359;53.048;8.732;2023-04-25T03:16:38;100842.84;;;5.71;88.62
43745;BME280;29359;53.048;8.732;2023-04-25T03:18:40;100846.31;;;5.73;88.83
43745;BME280;29359;53.048;8.732;2023-04-25T03:20:42;100849.81;;;5.72;89.43
43745;BME280;29359;53.048;8.732;2023-04-25T03:22:44;100848.06;;;5.72;88.31
43745;BME280;29359;53.048;8.732;2023-04-25T03:24:46;100847.19;;;5.73;87.95
43745;BME280;29359;53.048;8.732;2023-04-25T03:26:48;100849.81;;;5.75;87.50
43745;BME280;29359;53.048;8.732;2023-04-25T03:28:50;100855.94;;;5.72;87.78
43745;BME280;29359;53.048;8.732;2023-04-25T03:30:51;100853.31;;;5.71;87.30
43745;BME280;29359;53.048;8.732;2023-04-25T03:32:53;100860.31;;;5.72;86.91
43745;BME280;29359;53.048;8.732;2023-04-25T03:34:54;100861.16;;;5.72;86.74
43745;BME280;29359;53.048;8.732;2023-04-25T03:36:56;100861.19;;;5.69;87.40
43745;BME280;29359;53.048;8.732;2023-04-25T03:38:57;100864.66;;;5.71;86.36
43745;BME280;29359;53.048;8.732;2023-04-25T03:41:00;100858.56;;;5.71;86.48
43745;BME280;29359;53.048;8.732;2023-04-25T03:43:02;100858.56;;;5.71;85.65
43745;BME280;29359;53.048;8.732;2023-04-25T03:45:04;100862.94;;;5.70;85.59
43745;BME280;29359;53.048;8.732;2023-04-25T03:47:06;100869.06;;;5.67;85.17
43745;BME280;29359;53.048;8.732;2023-04-25T03:49:08;100872.59;;;5.65;85.39
43745;BME280;29359;53.048;8.732;2023-04-25T03:51:09;100866.44;;;5.63;85.16
43745;BME280;29359;53.048;8.732;2023-04-25T03:53:11;100876.94;;;5.60;85.90
43745;BME280;29359;53.048;8.732;2023-04-25T03:55:12;100879.59;;;5.55;85.13
43745;BME280;29359;53.048;8.732;2023-04-25T03:57:14;100869.16;;;5.51;86.11
43745;BME280;29359;53.048;8.732;2023-04-25T03:59:15;100879.66;;;5.46;86.14
43745;BME280;29359;53.048;8.732;2023-04-25T04:01:17;100878.81;;;5.43;86.52
43745;BME280;29359;53.048;8.732;2023-04-25T04:03:18;100877.09;;;5.40;86.05
43745;BME280;29359;53.048;8.732;2023-04-25T04:05:20;100887.59;;;5.37;85.87
43745;BME280;29359;53.048;8.732;2023-04-25T04:07:22;100887.63;;;5.32;86.79
43745;BME280;29359;53.048;8.732;2023-04-25T04:09:24;100889.38;;;5.32;86.20
43745;BME280;29359;53.048;8.732;2023-04-25T04:11:26;100888.50;;;5.30;86.30
43745;BME280;29359;53.048;8.732;2023-04-25T04:13:28;100890.28;;;5.26;87.24
43745;BME280;29359;53.048;8.732;2023-04-25T04:15:31;100895.53;;;5.25;87.22
43745;BME280;29359;53.048;8.732;2023-04-25T04:17:34;100896.41;;;5.21;86.67
43745;BME280;29359;53.048;8.732;2023-04-25T04:19:36;100904.25;;;5.19;87.21
43745;BME280;29359;53.048;8.732;2023-04-25T04:21:37;100905.13;;;5.15;87.37
43745;BME280;29359;53.048;8.732;2023-04-25T04:23:39;100905.16;;;5.12;86.63
43745;BME280;29359;53.048;8.732;2023-04-25T04:25:41;100907.78;;;5.11;86.40
43745;BME280;29359;53.048;8.732;2023-04-25T04:27:43;100906.91;;;5.10;86.58
43745;BME280;29359;53.048;8.732;2023-04-25T04:29:46;100913.03;;;5.09;86.99
43745;BME280;29359;53.048;8.732;2023-04-25T04:31:48;100920.00;;;5.05;86.43
43745;BME280;29359;53.048;8.732;2023-04-25T04:33:51;100924.38;;;5.05;86.48
43745;BME280;29359;53.048;8.732;2023-04-25T04:35:53;100929.63;;;5.05;86.38
43745;BME280;29359;53.048;8.732;2023-04-25T04:37:56;100934.84;;;5.05;86.51
43745;BME280;29359;53.048;8.732;2023-04-25T04:39:58;100932.22;;;5.03;86.30
43745;BME280;29359;53.048;8.732;2023-04-25T04:42:00;100938.34;;;5.05;86.30
43745;BME280;29359;53.048;8.732;2023-04-25T04:44:03;100942.69;;;5.07;86.08
43745;BME280;29359;53.048;8.732;2023-04-25T04:46:06;100937.44;;;5.08;86.82
43745;BME280;29359;53.048;8.732;2023-04-25T04:48:08;100939.19;;;5.09;85.64
43745;BME280;29359;53.048;8.732;2023-04-25T04:50:13;100944.41;;;5.12;85.63
43745;BME280;29359;53.048;8.732;2023-04-25T04:52:16;100943.53;;;5.12;85.61
43745;BME280;29359;53.048;8.732;2023-04-25T04:54:17;100936.53;;;5.15;84.78
43745;BME280;29359;53.048;8.732;2023-04-25T04:56:19;100943.50;;;5.18;85.29
43745;BME280;29359;53.048;8.732;2023-04-25T04:58:24;100946.13;;;5.18;85.13
43745;BME280;29359;53.048;8.732;2023-04-25T05:00:26;100947.88;;;5.20;84.49
43745;BME280;29359;53.048;8.732;2023-04-25T05:02:30;100946.13;;;5.22;84.71
43745;BME280;29359;53.048;8.732;2023-04-25T05:04:31;100963.56;;;5.26;84.86
43745;BME280;29359;53.048;8.732;2023-04-25T05:06:33;100957.44;;;5.27;84.13
43745;BME280;29359;53.048;8.732;2023-04-25T05:08:35;100957.44;;;5.29;83.67
43745;BME280;29359;53.048;8.732;2023-04-25T05:10:36;100956.56;;;5.30;84.13
43745;BME280;29359;53.048;8.732;2023-04-25T05:12:38;100960.94;;;5.31;83.38
43745;BME280;29359;53.048;8.732;2023-04-25T05:14:39;100967.03;;;5.33;83.16
43745;BME280;29359;53.048;8.732;2023-04-25T05:16:42;100973.13;;;5.35;82.69
43745;BME280;29359;53.048;8.732;2023-04-25T05:18:43;100967.00;;;5.36;83.01
43745;BME280;29359;53.048;8.732;2023-04-25T05:20:45;100959.13;;;5.39;83.80
43745;BME280;29359;53.048;8.732;2023-04-25T05:22:47;100966.97;;;5.42;83.41
43745;BME280;29359;53.048;8.732;2023-04-25T05:24:48;100971.31;;;5.45;83.45
43745;BME280;29359;53.048;8.732;2023-04-25T05:26:50;100973.94;;;5.46;83.53
43745;BME280;29359;53.048;8.732;2023-04-25T05:28:52;100970.44;;;5.46;83.12
43745;BME280;29359;53.048;8.732;2023-04-25T05:30:53;100971.31;;;5.45;82.87
43745;BME280;29359;53.048;8.732;2023-04-25T05:32:55;100977.44;;;5.44;83.06
43745;BME280;29359;53.048;8.732;2023-04-25T05:34:57;100977.44;;;5.45;82.31
43745;BME280;29359;53.048;8.732;2023-04-25T05:36:58;100972.19;;;5.45;82.87
43745;BME280;29359;53.048;8.732;2023-04-25T05:39:00;100982.63;;;5.50;82.03
43745;BME280;29359;53.048;8.732;2023-04-25T05:41:01;100980.88;;;5.52;82.65
43745;BME280;29359;53.048;8.732;2023-04-25T05:43:03;100977.38;;;5.56;82.29
43745;BME280;29359;53.048;8.732;2023-04-25T05:45:05;100983.47;;;5.59;82.14
43745;BME280;29359;53.048;8.732;2023-04-25T05:47:07;100992.16;;;5.63;81.98
43745;BME280;29359;53.048;8.732;2023-04-25T05:49:08;100993.06;;;5.66;80.89
43745;BME280;29359;53.048;8.732;2023-04-25T05:51:09;100992.16;;;5.69;80.74
43745;BME280;29359;53.048;8.732;2023-04-25T05:53:11;100998.25;;;5.74;80.87
43745;BME280;29359;53.048;8.732;2023-04-25T05:55:13;100994.72;;;5.77;80.64
43745;BME280;29359;53.048;8.732;2023-04-25T05:57:22;100999.97;;;5.78;81.23
43745;BME280;29359;53.048;8.732;2023-04-25T05:59:24;101003.41;;;5.85;80.70
43745;BME280;29359;53.048;8.732;2023-04-25T06:01:26;100999.03;;;5.88;79.89
43745;BME280;29359;53.048;8.732;2023-04-25T06:03:27;101002.50;;;5.93;79.60
43745;BME280;29359;53.048;8.732;2023-04-25T06:05:29;101005.97;;;5.98;80.23
43745;BME280;29359;53.048;8.732;2023-04-25T06:07:32;101011.16;;;6.05;80.33
43745;BME280;29359;53.048;8.732;2023-04-25T06:09:33;101005.91;;;6.06;80.43
43745;BME280;29359;53.048;8.732;2023-04-25T06:11:35;101008.53;;;6.09;80.66
43745;BME280;29359;53.048;8.732;2023-04-25T06:13:36;101017.25;;;6.14;79.31
43745;BME280;29359;53.048;8.732;2023-04-25T06:15:38;101016.38;;;6.15;78.53
43745;BME280;29359;53.048;8.732;2023-04-25T06:17:40;101016.38;;;6.15;78.34
43745;BME280;29359;53.048;8.732;2023-04-25T06:19:41;101015.50;;;6.15;78.27
43745;BME280;29359;53.048;8.732;2023-04-25T06:21:44;101018.97;;;6.15;78.44
43745;BME280;29359;53.048;8.732;2023-04-25T06:23:45;101021.56;;;6.21;78.45
43745;BME280;29359;53.048;8.732;2023-04-25T06:25:47;101025.00;;;6.26;79.02
43745;BME280;29359;53.048;8.732;2023-04-25T06:27:48;101020.63;;;6.30;78.32
43745;BME280;29359;53.048;8.732;2023-04-25T06:29:50;101024.09;;;6.30;77.75
43745;BME280;29359;53.048;8.732;2023-04-25T06:31:51;101019.72;;;6.33;77.62
43745;BME280;29359;53.048;8.732;2023-04-25T06:33:53;101010.97;;;6.35;76.33
43745;BME280;29359;53.048;8.732;2023-04-25T06:35:56;101019.66;;;6.39;75.92
43745;BME280;29359;53.048;8.732;2023-04-25T06:37:57;101027.47;;;6.45;75.92
43745;BME280;29359;53.048;8.732;2023-04-25T06:39:59;101037.06;;;6.52;76.21
43745;BME280;29359;53.048;8.732;2023-04-25T06:42:00;101034.38;;;6.58;75.73
43745;BME280;29359;53.048;8.732;2023-04-25T06:44:02;101030.81;;;6.67;74.77
43745;BME280;29359;53.048;8.732;2023-04-25T06:46:03;101027.19;;;6.78;74.37
43745;BME280;29359;53.048;8.732;2023-04-25T06:48:05;101040.25;;;6.86;73.54
43745;BME280;29359;53.048;8.732;2023-04-25T06:50:07;101029.69;;;6.90;72.91
43745;BME280;29359;53.048;8.732;2023-04-25T06:52:08;101036.66;;;6.93;71.87
43745;BME280;29359;53.048;8.732;2023-04-25T06:54:11;101037.56;;;6.90;71.66
43745;BME280;29359;53.048;8.732;2023-04-25T06:56:13;101030.56;;;6.92;72.66
43745;BME280;29359;53.048;8.732;2023-04-25T06:58:14;101040.19;;;6.95;72.00
43745;BME280;29359;53.048;8.732;2023-04-25T07:00:16;101036.63;;;6.99;72.78
43745;BME280;29359;53.048;8.732;2023-04-25T07:02:18;101042.72;;;7.03;71.63
43745;BME280;29359;53.048;8.732;2023-04-25T07:04:20;101040.06;;;7.04;71.72
43745;BME280;29359;53.048;8.732;2023-04-25T07:06:22;101046.16;;;7.09;72.28
43745;BME280;29359;53.048;8.732;2023-04-25T07:08:23;101052.25;;;7.11;71.58
43745;BME280;29359;53.048;8.732;2023-04-25T07:10:25;101054.03;;;7.09;72.71
43745;BME280;29359;53.048;8.732;2023-04-25T07:12:27;101048.78;;;7.08;71.91
43745;BME280;29359;53.048;8.732;2023-04-25T07:14:28;101058.41;;;7.09;72.47
43745;BME280;29359;53.048;8.732;2023-04-25T07:16:30;101059.34;;;7.03;72.04
43745;BME280;29359;53.048;8.732;2023-04-25T07:18:31;101060.31;;;6.95;72.04
43745;BME280;29359;53.048;8.732;2023-04-25T07:20:33;101060.34;;;6.88;70.84
43745;BME280;29359;53.048;8.732;2023-04-25T07:22:34;101062.13;;;6.85;71.59
43745;BME280;29359;53.048;8.732;2023-04-25T07:24:36;101063.88;;;6.86;71.23
43745;BME280;29359;53.048;8.732;2023-04-25T07:26:37;101062.94;;;6.90;72.10
43745;BME280;29359;53.048;8.732;2023-04-25T07:28:39;101064.66;;;6.92;70.97
43745;BME280;29359;53.048;8.732;2023-04-25T07:30:40;101073.34;;;7.04;72.93
43745;BME280;29359;53.048;8.732;2023-04-25T07:32:42;101070.63;;;7.13;72.54
43745;BME280;29359;53.048;8.732;2023-04-25T07:34:44;101077.53;;;7.20;70.92
43745;BME280;29359;53.048;8.732;2023-04-25T07:36:45;101073.94;;;7.30;71.48
43745;BME280;29359;53.048;8.732;2023-04-25T07:38:47;101076.50;;;7.35;70.28
43745;BME280;29359;53.048;8.732;2023-04-25T07:40:49;101072.94;;;7.43;70.55
43745;BME280;29359;53.048;8.732;2023-04-25T07:42:51;101084.16;;;7.56;70.26
43745;BME280;29359;53.048;8.732;2023-04-25T07:44:52;101092.81;;;7.63;67.74
43745;BME280;29359;53.048;8.732;2023-04-25T07:46:54;101066.59;;;7.60;64.79
43745;BME280;29359;53.048;8.732;2023-04-25T07:48:55;101075.28;;;7.65;64.35
43745;BME280;29359;53.048;8.732;2023-04-25T07:50:57;101071.72;;;7.70;64.73
43745;BME280;29359;53.048;8.732;2023-04-25T07:52:58;101063.69;;;7.82;68.52
43745;BME280;29359;53.048;8.732;2023-04-25T07:55:00;101069.72;;;7.91;65.75
43745;BME280;29359;53.048;8.732;2023-04-25T07:57:01;101073.06;;;8.02;64.60
43745;BME280;29359;53.048;8.732;2023-04-25T07:59:03;101090.44;;;8.12;64.71
43745;BME280;29359;53.048;8.732;2023-04-25T08:01:05;101081.59;;;8.17;63.85
43745;BME280;29359;53.048;8.732;2023-04-25T08:03:06;101082.56;;;8.12;65.05
43745;BME280;29359;53.048;8.732;2023-04-25T08:05:09;101080.72;;;8.17;65.68
43745;BME280;29359;53.048;8.732;2023-04-25T08:07:13;101096.41;;;8.26;65.03
43745;BME280;29359;53.048;8.732;2023-04-25T08:09:15;101096.44;;;8.22;62.42
43745;BME280;29359;53.048;8.732;2023-04-25T08:11:16;101106.13;;;8.18;62.79
43745;BME280;29359;53.048;8.732;2023-04-25T08:13:18;101100.94;;;8.13;63.16
43745;BME280;29359;53.048;8.732;2023-04-25T08:15:19;101093.94;;;8.12;63.42
43745;BME280;29359;53.048;8.732;2023-04-25T08:17:21;101099.28;;;8.06;62.98
43745;BME280;29359;53.048;8.732;2023-04-25T08:19:23;101103.75;;;8.00;62.34
43745;BME280;29359;53.048;8.732;2023-04-25T08:21:24;101120.53;;;7.91;62.60
43745;BME280;29359;53.048;8.732;2023-04-25T08:23:28;101134.69;;;7.81;64.50
43745;BME280;29359;53.048;8.732;2023-04-25T08:25:29;101143.56;;;7.68;66.64
43745;BME280;29359;53.048;8.732;2023-04-25T08:27:31;101154.41;;;7.34;68.26
43745;BME280;29359;53.048;8.732;2023-04-25T08:29:33;101162.66;;;6.96;68.40
43745;BME280;29359;53.048;8.732;2023-04-25T08:31:34;101155.94;;;6.55;69.99
43745;BME280;29359;53.048;8.732;2023-04-25T08:33:36;101157.88;;;6.24;72.45
43745;BME280;29359;53.048;8.732;2023-04-25T08:35:38;101146.59;;;6.10;73.94
43745;BME280;29359;53.048;8.732;2023-04-25T08:37:39;101142.22;;;6.05;72.06
43745;BME280;29359;53.048;8.732;2023-04-25T08:39:41;101139.59;;;6.03;70.85
43745;BME280;29359;53.048;8.732;2023-04-25T08:41:44;101148.31;;;6.13;72.41
43745;BME280;29359;53.048;8.732;2023-04-25T08:43:48;101160.50;;;6.23;72.81
43745;BME280;29359;53.048;8.732;2023-04-25T08:45:52;101158.69;;;6.34;73.15
43745;BME280;29359;53.048;8.732;2023-04-25T08:47:56;101156.00;;;6.43;72.86
43745;BME280;29359;53.048;8.732;2023-04-25T08:49:59;101162.97;;;6.53;71.81
43745;BME280;29359;53.048;8.732;2023-04-25T08:52:03;101162.84;;;6.67;72.01
43745;BME280;29359;53.048;8.732;2023-04-25T08:54:09;101171.47;;;6.83;70.67
43745;BME280;29359;53.048;8.732;2023-04-25T08:56:32;101175.75;;;7.01;69.75
43745;BME280;29359;53.048;8.732;2023-04-25T08:58:36;101185.28;;;7.11;68.22
43745;BME280;29359;53.048;8.732;2023-04-25T09:00:39;101187.00;;;7.15;67.53
43745;BME280;29359;53.048;8.732;2023-04-25T09:02:42;101185.25;;;7.15;67.56
43745;BME280;29359;53.048;8.732;2023-04-25T09:04:45;101186.03;;;7.23;66.95
43745;BME280;29359;53.048;8.732;2023-04-25T09:06:47;101180.63;;;7.42;67.89
43745;BME280;29359;53.048;8.732;2023-04-25T09:08:50;101177.81;;;7.60;66.15
43745;BME280;29359;53.048;8.732;2023-04-25T09:10:51;101177.72;;;7.68;64.69
43745;BME280;29359;53.048;8.732;2023-04-25T09:13:09;101174.13;;;7.76;64.98
43745;BME280;29359;53.048;8.732;2023-04-25T09:15:12;101176.44;;;8.04;67.48
43745;BME280;29359;53.048;8.732;2023-04-25T09:17:21;101200.75;;;8.26;64.83
43745;BME280;29359;53.048;8.732;2023-04-25T09:21:40;101195.50;;;8.21;62.92
43745;BME280;29359;53.048;8.732;2023-04-25T09:23:47;101199.88;;;8.22;62.54
43745;BME280;29359;53.048;8.732;2023-04-25T09:25:52;101205.22;;;8.16;62.38
43745;BME280;29359;53.048;8.732;2023-04-25T09:27:54;101203.41;;;8.19;64.56
43745;BME280;29359;53.048;8.732;2023-04-25T09:29:58;101213.03;;;8.22;62.58
43745;BME280;29359;53.048;8.732;2023-04-25T09:32:20;101212.13;;;8.23;61.62
43745;BME280;29359;53.048;8.732;2023-04-25T09:34:25;101223.53;;;8.25;61.47
43745;BME280;29359;53.048;8.732;2023-04-25T09:36:27;101238.44;;;8.23;61.97
43745;BME280;29359;53.048;8.732;2023-04-25T09:38:30;101224.53;;;8.13;60.57
43745;BME280;29359;53.048;8.732;2023-04-25T09:40:32;101235.84;;;8.20;63.22
43745;BME280;29359;53.048;8.732;2023-04-25T09:42:33;101230.63;;;8.18;61.88
43745;BME280;29359;53.048;8.732;2023-04-25T09:44:36;101228.00;;;8.17;62.44
43745;BME280;29359;53.048;8.732;2023-04-25T09:46:37;101236.72;;;8.20;62.13
43745;BME280;29359;53.048;8.732;2023-04-25T09:48:39;101222.75;;;8.15;62.15
43745;BME280;29359;53.048;8.732;2023-04-25T09:50:41;101230.56;;;8.22;64.18
43745;BME280;29359;53.048;8.732;2023-04-25T09:52:43;101226.03;;;8.39;64.17
43745;BME280;29359;53.048;8.732;2023-04-25T09:54:46;101236.31;;;8.57;64.66
43745;BME280;29359;53.048;8.732;2023-04-25T09:56:48;101234.44;;;8.65;65.36
43745;BME280;29359;53.048;8.732;2023-04-25T09:58:53;101239.72;;;8.64;63.26
43745;BME280;29359;53.048;8.732;2023-04-25T10:00:59;101236.16;;;8.69;63.31
43745;BME280;29359;53.048;8.732;2023-04-25T10:03:01;101238.78;;;8.69;62.90
43745;BME280;29359;53.048;8.732;2023-04-25T10:05:07;101232.75;;;8.60;61.85
43745;BME280;29359;53.048;8.732;2023-04-25T10:07:10;101236.19;;;8.65;65.88
43745;BME280;29359;53.048;8.732;2023-04-25T10:09:12;101243.19;;;8.66;63.03
43745;BME280;29359;53.048;8.732;2023-04-25T10:11:15;101231.84;;;8.62;64.25
43745;BME280;29359;53.048;8.732;2023-04-25T10:13:18;101245.81;;;8.69;65.81
43745;BME280;29359;53.048;8.732;2023-04-25T10:15:21;101247.50;;;8.73;65.69
43745;BME280;29359;53.048;8.732;2023-04-25T10:17:26;101247.56;;;8.67;61.71
43745;BME280;29359;53.048;8.732;2023-04-25T10:19:28;101252.03;;;8.62;60.09
43745;BME280;29359;53.048;8.732;2023-04-25T10:21:31;101257.47;;;8.49;61.62
43745;BME280;29359;53.048;8.732;2023-04-25T10:23:36;101270.84;;;8.28;62.96
43745;BME280;29359;53.048;8.732;2023-04-25T10:25:39;101270.31;;;7.96;61.08
43745;BME280;29359;53.048;8.732;2023-04-25T10:27:41;101272.31;;;7.69;65.22
43745;BME280;29359;53.048;8.732;2023-04-25T10:29:43;101264.56;;;7.57;64.56
43745;BME280;29359;53.048;8.732;2023-04-25T10:31:46;101275.91;;;7.59;67.28
43745;BME280;29359;53.048;8.732;2023-04-25T10:33:48;101270.66;;;7.59;67.84
43745;BME280;29359;53.048;8.732;2023-04-25T10:35:51;101268.00;;;7.64;68.24
43745;BME280;29359;53.048;8.732;2023-04-25T10:38:13;101268.78;;;7.72;68.18
43745;BME280;29359;53.048;8.732;2023-04-25T10:40:21;101273.06;;;7.86;69.04
43745;BME280;29359;53.048;8.732;2023-04-25T10:42:23;101264.06;;;8.06;70.21
43745;BME280;29359;53.048;8.732;2023-04-25T10:44:31;101265.66;;;8.20;67.11
43745;BME280;29359;53.048;8.732;2023-04-25T10:46:33;101275.22;;;8.31;68.10
43745;BME280;29359;53.048;8.732;2023-04-25T10:48:36;101268.06;;;8.43;68.29
43745;BME280;29359;53.048;8.732;2023-04-25T10:50:39;101262.53;;;8.63;66.22